Time;durP1;ratioP1;P1;durP2;ratioP2;P2;SDS_P1;SDS_P2;PMS_P1;PMS_P2;Temp;Humidity;BMP_temperature;BMP_pressure;BME280_temperature;BME280_humidity;BME280_pressure;Samples;Min_cycle;Max_cycle;Signal;HPM_P1;HPM_P2
2023/11/26 00:00:58;;;;;;;12.23;4.95;;;;;;;2.20;100.00;101350.03;5131770;28;20513;-49
2023/11/26 00:03:28;;;;;;;15.63;5.82;;;;;;;2.15;100.00;101357.03;5129189;28;20679;-47
2023/11/26 00:05:56;;;;;;;11.40;5.15;;;;;;;2.12;100.00;101359.72;5130619;28;20436;-46
2023/11/26 00:08:24;;;;;;;12.65;4.28;;;;;;;2.08;100.00;101361.50;5132207;27;20074;-46
2023/11/26 00:10:52;;;;;;;12.98;5.10;;;;;;;2.05;100.00;101364.19;5132299;27;20397;-46
2023/11/26 00:13:24;;;;;;;11.90;5.47;;;;;;;2.01;100.00;101362.53;5132022;27;20096;-45
2023/11/26 00:15:52;;;;;;;10.45;4.43;;;;;;;1.99;100.00;101372.06;5128968;27;20589;-49
2023/11/26 00:18:20;;;;;;;10.77;4.88;;;;;;;1.95;100.00;101357.47;5130438;27;20039;-47
2023/11/26 00:20:50;;;;;;;11.85;4.75;;;;;;;1.86;100.00;101354.16;5132573;27;20074;-46
2023/11/26 00:23:18;;;;;;;11.50;4.97;;;;;;;1.84;100.00;101355.97;5132546;27;20057;-47
2023/11/26 00:25:46;;;;;;;12.52;5.15;;;;;;;1.76;100.00;101357.84;5129989;27;20505;-49
2023/11/26 00:28:14;;;;;;;10.55;5.05;;;;;;;1.72;100.00;101364.00;5132375;27;20058;-46
2023/11/26 00:30:42;;;;;;;12.07;5.38;;;;;;;1.67;100.00;101358.03;5132823;27;20119;-49
2023/11/26 00:33:10;;;;;;;13.95;5.15;;;;;;;1.62;100.00;101354.66;5135595;27;20378;-45
2023/11/26 00:35:38;;;;;;;10.57;5.32;;;;;;;1.60;100.00;101356.47;5135465;27;20035;-45
2023/11/26 00:38:08;;;;;;;11.18;5.22;;;;;;;1.57;100.00;101343.53;5132138;27;20054;-48
2023/11/26 00:40:36;;;;;;;19.92;6.25;;;;;;;1.55;100.00;101340.97;5131026;27;20811;-47
2023/11/26 00:43:07;;;;;;;12.60;5.53;;;;;;;1.54;100.00;101346.19;5134948;27;20520;-45
2023/11/26 00:45:35;;;;;;;12.48;5.88;;;;;;;1.47;100.00;101337.66;5132492;27;20515;-49
2023/11/26 00:48:04;;;;;;;14.82;6.47;;;;;;;1.46;100.00;101351.50;5132639;27;20074;-47
2023/11/26 00:50:33;;;;;;;12.57;6.68;;;;;;;1.42;100.00;101350.72;5132151;27;20074;-52
2023/11/26 00:53:02;;;;;;;10.93;6.30;;;;;;;1.37;100.00;101354.31;5134386;27;20043;-52
2023/11/26 00:55:32;;;;;;;16.77;6.38;;;;;;;1.34;100.00;101350.88;5132287;27;20120;-45
2023/11/26 00:58:00;;;;;;;16.58;7.10;;;;;;;1.28;100.00;101348.41;5131174;27;20046;-48
2023/11/26 01:00:28;;;;;;;17.98;6.68;;;;;;;1.24;100.00;101351.06;5134033;27;20058;-46
2023/11/26 01:02:57;;;;;;;17.58;6.95;;;;;;;1.24;100.00;101353.66;5134074;27;20047;-46
2023/11/26 01:05:26;;;;;;;14.77;6.85;;;;;;;1.21;100.00;101349.38;5135115;27;20177;-45
2023/11/26 01:07:54;;;;;;;18.13;6.65;;;;;;;1.16;100.00;101343.44;5134329;27;20502;-46
2023/11/26 01:10:22;;;;;;;13.13;6.15;;;;;;;1.12;100.00;101340.03;5129549;27;20051;-48
2023/11/26 01:12:52;;;;;;;13.82;5.85;;;;;;;1.10;100.00;101340.94;5132247;27;20039;-46
2023/11/26 01:15:20;;;;;;;13.55;6.20;;;;;;;1.08;100.00;101343.56;5131469;27;20053;-48
2023/11/26 01:17:49;;;;;;;15.73;6.93;;;;;;;1.10;100.00;101348.72;5131324;27;20123;-48
2023/11/26 01:20:17;;;;;;;16.55;6.22;;;;;;;1.07;100.00;101352.22;5133056;27;20120;-46
2023/11/26 01:22:45;;;;;;;14.15;6.75;;;;;;;1.05;100.00;101353.13;5130123;27;20043;-47
2023/11/26 01:25:13;;;;;;;17.17;6.57;;;;;;;1.02;100.00;101348.84;5129722;27;20835;-45
2023/11/26 01:27:41;;;;;;;18.00;6.88;;;;;;;0.97;100.00;101359.31;5133304;27;20047;-49
2023/11/26 01:30:11;;;;;;;15.20;5.85;;;;;;;0.96;100.00;101354.16;5133356;27;20057;-46
2023/11/26 01:32:41;;;;;;;15.07;6.07;;;;;;;0.93;100.00;101355.06;5131868;27;20047;-49
2023/11/26 01:35:09;;;;;;;14.57;5.70;;;;;;;0.90;100.00;101362.88;5131933;27;20052;-47
2023/11/26 01:37:37;;;;;;;16.70;6.40;;;;;;;0.90;100.00;101359.41;5132518;27;20047;-48
2023/11/26 01:40:09;;;;;;;15.75;6.00;;;;;;;0.89;100.00;101352.56;5130284;27;20126;-50
2023/11/26 01:42:37;;;;;;;13.30;6.05;;;;;;;0.87;100.00;101357.72;5130784;27;20043;-50
2023/11/26 01:45:08;;;;;;;15.13;6.45;;;;;;;0.88;100.00;101349.09;5134277;27;20039;-47
2023/11/26 01:47:38;;;;;;;15.45;6.85;;;;;;;0.87;100.00;101354.31;5134047;27;20437;-49
2023/11/26 01:50:08;;;;;;;13.38;6.05;;;;;;;0.85;100.00;101349.16;5134533;27;20058;-48
2023/11/26 01:52:37;;;;;;;13.65;6.00;;;;;;;0.84;100.00;101353.44;5131681;27;20507;-46
2023/11/26 01:55:08;;;;;;;25.38;7.38;;;;;;;0.82;100.00;101355.22;5129775;27;20080;-48
2023/11/26 01:57:36;;;;;;;12.65;5.85;;;;;;;0.80;100.00;101364.75;5130526;27;20047;-48
2023/11/26 02:00:07;;;;;;;16.83;6.28;;;;;;;0.77;100.00;101362.22;5133234;27;20406;-47
2023/11/26 02:02:35;;;;;;;22.10;6.38;;;;;;;0.77;100.00;101353.59;5131347;27;20066;-46
2023/11/26 02:05:05;;;;;;;12.50;6.18;;;;;;;0.76;100.00;101347.53;5130643;27;20054;-46
2023/11/26 02:07:34;;;;;;;19.02;6.70;;;;;;;0.75;100.00;101353.63;5131109;27;20467;-54
2023/11/26 02:10:02;;;;;;;15.38;6.50;;;;;;;0.75;100.00;101356.22;5130353;27;20126;-52
2023/11/26 02:12:31;;;;;;;18.92;5.72;;;;;;;0.75;100.00;101355.34;5130719;27;20050;-52
2023/11/26 02:14:59;;;;;;;18.40;6.28;;;;;;;0.70;100.00;101360.59;5131010;27;20058;-52
2023/11/26 02:17:27;;;;;;;18.00;6.03;;;;;;;0.70;100.00;101360.59;5130655;27;20058;-54
2023/11/26 02:19:57;;;;;;;15.25;6.45;;;;;;;0.67;100.00;101356.34;5133027;27;20391;-47
2023/11/26 02:22:27;;;;;;;13.10;6.20;;;;;;;0.67;100.00;101358.06;5132300;27;20083;-54
2023/11/26 02:24:56;;;;;;;13.95;6.00;;;;;;;0.67;100.00;101355.50;5130582;27;20039;-53
2023/11/26 02:27:25;;;;;;;16.17;6.28;;;;;;;0.66;100.00;101353.78;5127796;27;20150;-46
2023/11/26 02:29:53;;;;;;;14.48;5.38;;;;;;;0.67;100.00;101348.56;5130101;27;20043;-45
2023/11/26 02:32:21;;;;;;;12.73;5.38;;;;;;;0.68;100.00;101352.00;5129924;27;20031;-47
2023/11/26 02:34:49;;;;;;;19.30;6.18;;;;;;;0.64;100.00;101358.97;5130694;27;20047;-48
2023/11/26 02:37:17;;;;;;;18.08;6.78;;;;;;;0.65;100.00;101357.22;5130077;27;20035;-46
2023/11/26 02:39:45;;;;;;;12.80;5.68;;;;;;;0.65;100.00;101355.47;5133252;27;20039;-46
2023/11/26 02:42:15;;;;;;;13.85;4.95;;;;;;;0.62;100.00;101350.34;5130889;27;20035;-47
2023/11/26 02:44:43;;;;;;;15.80;5.55;;;;;;;0.65;100.00;101349.47;5130119;27;20473;-47
2023/11/26 02:47:11;;;;;;;16.52;5.78;;;;;;;0.63;100.00;101351.22;5129320;27;20035;-45
2023/11/26 02:49:41;;;;;;;12.23;5.00;;;;;;;0.60;100.00;101349.53;5130164;27;20594;-45
2023/11/26 02:52:09;;;;;;;13.10;5.35;;;;;;;0.58;100.00;101346.13;5129230;27;20043;-46
2023/11/26 02:54:37;;;;;;;20.73;6.05;;;;;;;0.56;100.00;101350.47;5130548;27;20039;-46
2023/11/26 02:57:06;;;;;;;17.65;5.95;;;;;;;0.58;100.00;101345.28;5127901;27;20061;-48
2023/11/26 02:59:36;;;;;;;16.52;5.82;;;;;;;0.56;100.00;101336.66;5128711;27;20054;-46
2023/11/26 03:02:04;;;;;;;14.55;5.05;;;;;;;0.54;100.00;101341.88;5130120;27;20134;-46
2023/11/26 03:04:32;;;;;;;17.92;5.75;;;;;;;0.54;100.00;101341.03;5133009;27;20070;-46
2023/11/26 03:07:00;;;;;;;16.60;5.43;;;;;;;0.54;100.00;101338.44;5130654;27;20537;-47
2023/11/26 03:09:40;;;;;;;18.08;5.53;;;;;;;0.53;100.00;101339.31;5132384;27;20046;-53
2023/11/26 03:14:59;;;;;;;11.38;5.20;;;;;;;0.53;100.00;101339.31;5128310;28;20059;-52
2023/11/26 03:17:27;;;;;;;15.77;5.78;;;;;;;0.52;100.00;101330.69;5131940;28;20163;-53
2023/11/26 03:19:57;;;;;;;12.93;5.15;;;;;;;0.49;100.00;101334.19;5128483;28;20039;-50
2023/11/26 03:22:26;;;;;;;12.88;5.13;;;;;;;0.46;100.00;101339.41;5127949;28;20047;-51
2023/11/26 03:24:54;;;;;;;11.70;5.00;;;;;;;0.46;100.00;101330.78;5128834;28;20420;-54
2023/11/26 03:27:22;;;;;;;14.60;6.18;;;;;;;0.46;100.00;101335.94;5127444;27;20047;-53
2023/11/26 03:29:50;;;;;;;12.77;5.68;;;;;;;0.48;100.00;101339.38;5130490;27;20043;-52
2023/11/26 03:32:20;;;;;;;15.00;5.60;;;;;;;0.47;100.00;101345.44;5131809;28;20039;-53
2023/11/26 03:34:48;;;;;;;14.40;5.65;;;;;;;0.45;100.00;101345.47;5129615;28;20059;-53
2023/11/26 03:37:17;;;;;;;13.32;4.60;;;;;;;0.45;100.00;101350.63;5128133;28;20405;-51
2023/11/26 03:39:45;;;;;;;14.52;4.90;;;;;;;0.45;100.00;101350.63;5129324;28;20051;-54
2023/11/26 03:42:14;;;;;;;15.90;4.72;;;;;;;0.45;100.00;101355.81;5130057;28;20449;-51
2023/11/26 03:44:54;;;;;;;14.85;6.32;;;;;;;0.45;100.00;101354.94;5129555;28;20405;-54
2023/11/26 03:47:24;;;;;;;14.07;4.95;;;;;;;0.45;100.00;101358.41;5128251;28;20104;-52
2023/11/26 03:49:52;;;;;;;13.32;5.22;;;;;;;0.44;100.00;101363.59;5127496;28;20043;-51
2023/11/26 03:52:20;;;;;;;15.77;5.38;;;;;;;0.45;100.00;101355.81;5128862;27;20121;-50
2023/11/26 03:54:48;;;;;;;13.82;5.80;;;;;;;0.45;100.00;101366.16;5133806;28;20051;-51
2023/11/26 03:57:17;;;;;;;14.20;5.43;;;;;;;0.45;100.00;101366.16;5135398;28;20096;-52
2023/11/26 03:59:45;;;;;;;14.15;5.30;;;;;;;0.47;100.00;101361.81;5135211;28;20737;-52
2023/11/26 04:02:14;;;;;;;15.30;5.30;;;;;;;0.48;100.00;101368.69;5132812;27;20077;-52
2023/11/26 04:04:45;;;;;;;14.77;5.03;;;;;;;0.47;100.00;101361.81;5132738;27;20039;-56
2023/11/26 04:07:13;;;;;;;12.02;5.30;;;;;;;0.47;100.00;101359.22;5090988;27;1175797;-53
2023/11/26 04:09:41;;;;;;;16.25;6.85;;;;;;;0.48;100.00;101367.84;5133337;27;20096;-54
2023/11/26 04:12:10;;;;;;;14.98;5.07;;;;;;;0.46;100.00;101367.00;5131025;27;20043;-55
2023/11/26 04:14:39;;;;;;;15.55;4.78;;;;;;;0.45;100.00;101373.94;5133070;27;20051;-55
2023/11/26 04:17:07;;;;;;;19.10;5.50;;;;;;;0.47;100.00;101366.97;5133516;27;20058;-53
2023/11/26 04:19:36;;;;;;;11.93;4.90;;;;;;;0.45;100.00;101361.00;5135162;27;20049;-52
2023/11/26 04:22:05;;;;;;;10.05;5.15;;;;;;;0.44;100.00;101366.19;5132666;27;20047;-53
2023/11/26 04:24:33;;;;;;;13.18;4.65;;;;;;;0.43;100.00;101373.06;5133506;27;20066;-50
2023/11/26 04:27:02;;;;;;;13.32;5.60;;;;;;;0.42;100.00;101373.09;5133420;27;20070;-53
2023/11/26 04:29:30;;;;;;;11.32;4.53;;;;;;;0.40;100.00;101369.69;5136248;27;20054;-51
2023/11/26 04:31:57;;;;;;;17.00;5.00;;;;;;;0.39;100.00;101368.81;5135493;27;20128;-54
2023/11/26 04:34:25;;;;;;;12.27;5.05;;;;;;;0.39;100.00;101378.34;5134320;27;20054;-53
2023/11/26 04:36:53;;;;;;;12.70;4.28;;;;;;;0.38;100.00;101379.19;5132094;27;20039;-54
2023/11/26 04:39:24;;;;;;;12.50;5.00;;;;;;;0.37;100.00;101383.53;5130980;27;20058;-53
2023/11/26 04:41:53;;;;;;;11.05;4.43;;;;;;;0.35;100.00;101380.09;5134935;27;20043;-51
2023/11/26 04:44:21;;;;;;;13.95;4.93;;;;;;;0.34;100.00;101378.38;5131990;27;20051;-55
2023/11/26 04:46:49;;;;;;;10.73;4.68;;;;;;;0.34;100.00;101378.38;5132495;27;20070;-53
2023/11/26 04:49:23;;;;;;;11.55;4.05;;;;;;;0.32;100.00;101375.81;5131914;27;20051;-54
2023/11/26 04:51:52;;;;;;;12.33;5.03;;;;;;;0.31;100.00;101379.31;5132506;27;20518;-54
2023/11/26 04:54:26;;;;;;;12.80;4.47;;;;;;;0.32;100.00;101370.66;5131747;27;20059;-53
2023/11/26 04:56:56;;;;;;;12.68;4.85;;;;;;;0.35;100.00;101363.72;5130918;27;20051;-52
2023/11/26 04:59:24;;;;;;;11.45;5.80;;;;;;;0.35;100.00;101376.66;5131856;27;20054;-52
2023/11/26 05:01:55;;;;;;;12.38;4.65;;;;;;;0.35;100.00;101372.34;5135248;27;20104;-53
2023/11/26 05:04:24;;;;;;;11.13;5.05;;;;;;;0.36;100.00;101363.69;5135199;27;20098;-51
2023/11/26 05:06:52;;;;;;;12.95;4.72;;;;;;;0.35;100.00;101369.75;5134987;27;20035;-52
2023/11/26 05:09:21;;;;;;;12.13;4.60;;;;;;;0.37;100.00;101372.31;5135195;27;20100;-51
2023/11/26 05:11:50;;;;;;;14.27;4.78;;;;;;;0.37;100.00;101375.78;5134410;27;20050;-53
2023/11/26 05:14:18;;;;;;;15.32;5.30;;;;;;;0.38;100.00;101377.47;5131526;27;20054;-53
2023/11/26 05:16:46;;;;;;;13.52;4.63;;;;;;;0.40;100.00;101373.13;5132238;27;20043;-51
2023/11/26 05:19:17;;;;;;;12.80;5.15;;;;;;;0.41;100.00;101369.69;5131675;27;20047;-51
2023/11/26 05:21:46;;;;;;;14.85;4.47;;;;;;;0.42;100.00;101367.94;5132286;27;20050;-53
2023/11/26 05:24:14;;;;;;;14.38;4.35;;;;;;;0.43;100.00;101378.25;5134218;27;20555;-52
2023/11/26 05:26:41;;;;;;;11.95;4.15;;;;;;;0.45;100.00;101381.69;5130526;27;20051;-54
2023/11/26 05:29:12;;;;;;;11.98;4.60;;;;;;;0.45;100.00;101379.09;5133677;27;20386;-54
2023/11/26 05:31:40;;;;;;;14.23;5.00;;;;;;;0.47;100.00;101382.50;5133656;27;20055;-54
2023/11/26 05:34:08;;;;;;;11.52;4.35;;;;;;;0.49;100.00;101380.78;5134664;27;20119;-54
2023/11/26 05:36:36;;;;;;;10.02;4.03;;;;;;;0.50;100.00;101374.72;5134126;27;20054;-46
2023/11/26 05:39:06;;;;;;;12.30;4.70;;;;;;;0.52;100.00;101371.22;5131420;27;20039;-49
2023/11/26 05:41:34;;;;;;;14.45;4.57;;;;;;;0.53;100.00;101376.38;5131593;27;20054;-50
2023/11/26 05:44:04;;;;;;;12.93;4.55;;;;;;;0.55;100.00;101381.56;5134487;27;20082;-49
2023/11/26 05:46:33;;;;;;;12.38;4.10;;;;;;;0.55;100.00;101379.81;5134823;27;20054;-46
2023/11/26 05:49:02;;;;;;;13.25;4.90;;;;;;;0.57;100.00;101372.03;5134513;27;20055;-47
2023/11/26 05:51:30;;;;;;;10.95;4.18;;;;;;;0.58;100.00;101376.34;5133232;27;20035;-50
2023/11/26 05:53:58;;;;;;;13.63;4.38;;;;;;;0.60;100.00;101377.16;5131463;27;20058;-52
2023/11/26 05:56:26;;;;;;;10.60;3.63;;;;;;;0.63;100.00;101379.72;5129314;27;20111;-52
2023/11/26 05:58:55;;;;;;;14.75;4.70;;;;;;;0.65;100.00;101380.53;5134094;27;20509;-51
2023/11/26 06:01:24;;;;;;;8.70;3.33;;;;;;;0.68;100.00;101385.66;5133681;27;20426;-52
2023/11/26 06:03:54;;;;;;;14.55;4.00;;;;;;;0.72;100.00;101383.88;5131427;27;20051;-52
2023/11/26 06:06:23;;;;;;;11.50;4.32;;;;;;;0.72;100.00;101373.53;5130822;27;20073;-52
2023/11/26 06:08:51;;;;;;;11.90;4.05;;;;;;;0.74;100.00;101382.13;5132433;27;20058;-53
2023/11/26 06:11:19;;;;;;;12.13;4.72;;;;;;;0.77;100.00;101382.09;5133995;27;20043;-53
2023/11/26 06:13:47;;;;;;;11.00;3.60;;;;;;;0.81;100.00;101378.56;5133479;27;20093;-52
2023/11/26 06:16:16;;;;;;;11.13;3.88;;;;;;;0.82;100.00;101375.94;5129649;27;20115;-53
2023/11/26 06:18:44;;;;;;;11.90;4.32;;;;;;;0.85;100.00;101367.28;5130766;27;20054;-51
2023/11/26 06:21:15;;;;;;;9.30;3.58;;;;;;;0.88;100.00;101375.00;5132578;27;20047;-53
2023/11/26 06:23:44;;;;;;;9.25;3.83;;;;;;;0.92;100.00;101368.03;5133869;27;20118;-53
2023/11/26 06:26:16;;;;;;;10.40;3.70;;;;;;;0.93;100.00;101373.19;5128750;27;20783;-53
2023/11/26 06:28:44;;;;;;;10.40;3.75;;;;;;;0.96;100.00;101369.69;5131106;27;20047;-53
2023/11/26 06:31:20;;;;;;;8.65;3.42;;;;;;;0.98;100.00;101373.97;5130738;27;20051;-53
2023/11/26 06:33:52;;;;;;;10.55;3.88;;;;;;;1.00;100.00;101373.94;5133309;27;20520;-53
2023/11/26 06:36:23;;;;;;;9.25;3.15;;;;;;;1.04;100.00;101375.59;5133447;27;20126;-53
2023/11/26 06:38:52;;;;;;;12.50;3.80;;;;;;;1.06;100.00;101373.81;5131711;27;20059;-52
2023/11/26 06:41:23;;;;;;;11.15;3.30;;;;;;;1.09;100.00;101368.63;5127723;27;20391;-52
2023/11/26 06:43:51;;;;;;;11.57;4.00;;;;;;;1.10;100.00;101362.53;5130847;27;20122;-53
2023/11/26 06:46:20;;;;;;;9.98;3.65;;;;;;;1.12;100.00;101360.78;5129900;27;20035;-53
2023/11/26 06:48:48;;;;;;;9.82;3.33;;;;;;;1.14;100.00;101360.75;5132788;27;20153;-50
2023/11/26 06:51:17;;;;;;;14.40;4.95;;;;;;;1.15;100.00;101355.53;5132720;27;20046;-53
2023/11/26 06:53:47;;;;;;;12.65;3.90;;;;;;;1.17;100.00;101361.56;5130184;27;20050;-53
2023/11/26 06:56:16;;;;;;;11.02;3.70;;;;;;;1.23;100.00;101359.72;5128979;27;20031;-52
2023/11/26 06:58:46;;;;;;;10.43;3.33;;;;;;;1.23;100.00;101359.72;5131679;27;20151;-55
2023/11/26 07:01:15;;;;;;;12.48;4.38;;;;;;;1.26;100.00;101363.13;5129479;27;20104;-53
2023/11/26 07:03:47;;;;;;;12.27;4.00;;;;;;;1.28;100.00;101368.25;5130286;27;20047;-53
2023/11/26 07:06:16;;;;;;;11.73;4.18;;;;;;;1.27;100.00;101369.13;5133122;27;20366;-57
2023/11/26 07:08:44;;;;;;;12.55;3.78;;;;;;;1.30;100.00;101366.50;5130930;27;20146;-53
2023/11/26 07:11:22;;;;;;;12.25;3.65;;;;;;;1.34;100.00;101373.34;5127031;27;20170;-51
2023/11/26 07:13:52;;;;;;;10.15;3.58;;;;;;;1.35;100.00;101362.94;5130201;27;20046;-54
2023/11/26 07:16:21;;;;;;;13.43;3.95;;;;;;;1.38;100.00;101372.41;5129043;27;20485;-51
2023/11/26 07:18:50;;;;;;;8.50;3.45;;;;;;;1.42;100.00;101371.47;5130023;27;20041;-50
2023/11/26 07:21:19;;;;;;;9.90;3.03;;;;;;;1.45;100.00;101365.38;5130041;27;20062;-49
2023/11/26 07:23:48;;;;;;;12.45;3.10;;;;;;;1.46;100.00;101367.94;5131309;28;20819;-52
2023/11/26 07:26:20;;;;;;;9.18;2.70;;;;;;;1.51;100.00;101368.72;5127126;27;20050;-47
2023/11/26 07:28:51;;;;;;;;;;;;;;;1.54;100.00;101375.59;5129716;27;20092;-54
2023/11/26 07:31:21;;;;;;;7.43;2.53;;;;;;;1.55;100.00;101372.09;5129754;28;19920;-53
2023/11/26 07:33:50;;;;;;;8.70;2.50;;;;;;;1.56;100.00;101376.38;5131392;28;20406;-51
2023/11/26 07:36:22;;;;;;;9.02;2.53;;;;;;;1.58;100.00;101371.16;5128510;28;20049;-53
2023/11/26 07:38:52;;;;;;;11.55;3.15;;;;;;;1.61;100.00;101365.91;5129836;28;20528;-53
2023/11/26 07:41:21;;;;;;;7.90;2.20;;;;;;;1.63;100.00;101374.53;5127000;28;20051;-53
2023/11/26 07:43:51;;;;;;;6.82;2.95;;;;;;;1.64;100.00;101381.44;5132569;28;20047;-51
2023/11/26 07:46:21;;;;;;;7.90;2.80;;;;;;;1.66;100.00;101380.53;5132660;27;20035;-51
2023/11/26 07:48:49;;;;;;;9.30;2.60;;;;;;;1.66;100.00;101385.72;5130805;28;20050;-50
2023/11/26 07:51:18;;;;;;;6.82;2.30;;;;;;;1.67;100.00;101379.63;5128596;28;20040;-53
2023/11/26 07:53:47;;;;;;;6.85;2.60;;;;;;;1.68;100.00;101383.09;5129679;28;20455;-52
2023/11/26 07:56:16;;;;;;;7.72;2.50;;;;;;;1.70;100.00;101378.72;5131353;27;20165;-50
2023/11/26 07:58:45;;;;;;;9.73;3.35;;;;;;;1.71;100.00;101380.44;5129922;27;20046;-51
2023/11/26 08:01:14;;;;;;;8.00;2.53;;;;;;;1.75;100.00;101379.47;5128379;28;20490;-53
2023/11/26 08:03:42;;;;;;;7.70;2.95;;;;;;;1.75;100.00;101382.06;5129296;28;20498;-52
2023/11/26 08:06:14;;;;;;;10.25;3.03;;;;;;;1.77;100.00;101375.13;5128530;27;20138;-51
2023/11/26 08:08:43;;;;;;;8.93;2.83;;;;;;;1.80;100.00;101376.78;5129326;27;20057;-54
2023/11/26 08:11:12;;;;;;;9.45;3.15;;;;;;;1.83;100.00;101380.19;5126680;28;20445;-51
2023/11/26 08:13:41;;;;;;;7.47;2.53;;;;;;;1.86;100.00;101377.53;5128246;28;20054;-53
2023/11/26 08:16:13;;;;;;;8.93;3.88;;;;;;;1.92;100.00;101380.88;5128646;28;20039;-53
2023/11/26 08:18:44;;;;;;;14.98;4.03;;;;;;;1.99;100.00;101387.66;5130009;28;20518;-53
2023/11/26 08:21:12;;;;;;;11.48;4.32;;;;;;;2.05;100.00;101384.09;5128411;28;20047;-54
2023/11/26 08:23:43;;;;;;;10.95;4.88;;;;;;;2.12;100.00;101389.09;5129661;27;20123;-54
2023/11/26 08:26:16;;;;;;;9.73;3.78;;;;;;;2.22;100.00;101388.91;5127541;27;20558;-54
2023/11/26 08:28:44;;;;;;;11.38;4.25;;;;;;;2.27;100.00;101384.47;5128978;28;20781;-54
2023/11/26 08:31:12;;;;;;;11.60;3.42;;;;;;;2.33;100.00;101392.13;5131009;28;20040;-54
2023/11/26 08:33:44;;;;;;;11.68;2.88;;;;;;;2.39;100.00;101392.00;5127997;28;20493;-54
2023/11/26 08:36:18;;;;;;;;;;;;;;;2.45;100.00;101388.41;5130280;27;20124;-53
2023/11/26 08:38:50;;;;;;;10.05;3.10;;;;;;;2.49;100.00;101392.63;5130768;27;20426;-53
2023/11/26 08:41:21;;;;;;;8.02;2.95;;;;;;;2.56;100.00;101383.81;5129989;27;20093;-53
2023/11/26 08:43:50;;;;;;;12.05;2.92;;;;;;;2.63;100.00;101384.53;5132778;27;20070;-53
2023/11/26 08:46:22;;;;;;;7.05;2.58;;;;;;;2.70;100.00;101370.53;5135578;27;20055;-53
2023/11/26 08:48:52;;;;;;;9.38;3.42;;;;;;;2.76;100.00;101372.13;5135728;27;20125;-53
2023/11/26 08:51:25;;;;;;;10.77;3.15;;;;;;;2.81;100.00;101376.31;5135593;27;20081;-53
2023/11/26 08:53:53;;;;;;;10.50;3.28;;;;;;;2.85;100.00;101359.75;5132898;27;20047;-54
2023/11/26 08:56:25;;;;;;;11.25;3.17;;;;;;;2.91;100.00;101363.09;5130220;27;20477;-53
2023/11/26 08:58:53;;;;;;;11.75;4.03;;;;;;;2.98;100.00;101362.88;5136027;27;20047;-52
2023/11/26 09:01:21;;;;;;;11.02;4.15;;;;;;;3.03;100.00;101374.03;5135441;27;20070;-54
2023/11/26 09:03:50;;;;;;;11.55;4.18;;;;;;;3.09;100.00;101366.97;5135432;27;20484;-53
2023/11/26 09:06:19;;;;;;;13.85;4.95;;;;;;;3.13;100.00;101369.44;5135660;27;20444;-52
2023/11/26 09:08:50;;;;;;;11.98;4.20;;;;;;;3.18;100.00;101367.59;5135172;27;20125;-53
2023/11/26 09:11:19;;;;;;;11.70;4.43;;;;;;;3.22;100.00;101364.00;5129475;27;20047;-52
2023/11/26 09:13:47;;;;;;;12.98;4.85;;;;;;;3.28;100.00;101367.34;5132434;27;20039;-54
2023/11/26 09:16:17;;;;;;;12.68;4.07;;;;;;;3.34;100.00;101367.16;5131604;27;20035;-53
2023/11/26 09:18:49;;;;;;;12.68;4.10;;;;;;;3.42;100.00;101360.00;5132086;27;20126;-53
2023/11/26 09:21:18;;;;;;;10.38;4.00;;;;;;;3.47;100.00;101367.72;5131367;27;20065;-54
2023/11/26 09:23:48;;;;;;;8.00;4.00;;;;;;;3.52;100.00;101358.03;5134666;27;20578;-53
2023/11/26 09:26:16;;;;;;;11.90;3.65;;;;;;;3.59;100.00;101366.53;5129757;27;20053;-54
2023/11/26 09:28:53;;;;;;;11.93;4.75;;;;;;;3.66;100.00;101362.84;5133679;27;20439;-55
2023/11/26 09:31:27;;;;;;;11.27;3.83;;;;;;;3.73;100.00;101369.59;5134803;27;20382;-53
2023/11/26 09:33:56;;;;;;;9.95;3.80;;;;;;;3.80;100.00;101371.09;5134440;27;20054;-55
2023/11/26 09:36:25;;;;;;;12.05;3.70;;;;;;;3.84;100.00;101375.31;5130980;27;20047;-52
2023/11/26 09:38:54;;;;;;;8.85;3.78;;;;;;;3.88;100.00;101373.50;5131619;27;20100;-55
2023/11/26 09:41:22;;;;;;;11.23;4.18;;;;;;;3.92;100.00;101374.28;5129842;27;20043;-55
2023/11/26 09:43:51;;;;;;;12.77;4.32;;;;;;;3.99;100.00;101381.00;5132087;27;20413;-54
2023/11/26 09:46:21;;;;;;;14.20;4.70;;;;;;;4.04;100.00;101384.34;5131643;27;20835;-53
2023/11/26 09:48:49;;;;;;;12.43;5.13;;;;;;;4.06;100.00;101385.13;5132011;27;20039;-55
2023/11/26 09:51:24;;;;;;;9.52;4.30;;;;;;;4.10;100.00;101383.28;5131223;27;20055;-47
2023/11/26 09:53:53;;;;;;;13.98;4.72;;;;;;;4.11;100.00;101367.63;5134674;27;20055;-47
2023/11/26 09:56:22;;;;;;;13.50;5.57;;;;;;;4.16;100.00;101363.13;5134422;27;20054;-47
2023/11/26 09:58:51;;;;;;;13.75;4.25;;;;;;;4.22;100.00;101362.94;5134643;27;20047;-55
2023/11/26 10:01:19;;;;;;;10.85;4.18;;;;;;;4.27;100.00;101361.94;5133206;27;20084;-46
2023/11/26 10:03:57;;;;;;;11.73;4.00;;;;;;;4.35;100.00;101362.56;5132989;27;20053;-46
2023/11/26 10:06:27;;;;;;;12.00;3.83;;;;;;;4.40;100.00;101369.38;5130656;27;20047;-55
2023/11/26 10:08:58;;;;;;;9.57;4.55;;;;;;;4.47;100.00;101359.59;5133530;27;21129;-55
2023/11/26 10:11:27;;;;;;;11.90;4.13;;;;;;;4.52;100.00;101359.44;5134314;27;20540;-46
2023/11/26 10:13:56;;;;;;;12.77;4.50;;;;;;;4.57;100.00;101358.41;5134223;27;20051;-47
2023/11/26 10:16:31;;;;;;;12.90;4.25;;;;;;;4.64;100.00;101359.06;5133607;27;20035;-51
2023/11/26 10:19:04;;;;;;;12.25;4.30;;;;;;;4.71;100.00;101360.56;5133950;27;20055;-48
2023/11/26 10:21:33;;;;;;;13.07;4.68;;;;;;;4.78;100.00;101356.00;5133771;27;20043;-51
2023/11/26 10:24:03;;;;;;;11.05;4.20;;;;;;;4.85;100.00;101360.13;5133697;27;20059;-53
2023/11/26 10:26:33;;;;;;;14.20;4.60;;;;;;;4.90;100.00;101352.97;5133743;27;20065;-53
2023/11/26 10:29:03;;;;;;;15.20;4.80;;;;;;;4.98;100.00;101344.06;5133658;27;20077;-54
2023/11/26 10:31:33;;;;;;;11.45;4.32;;;;;;;5.03;100.00;101348.22;5131680;27;20043;-53
2023/11/26 10:34:09;;;;;;;12.15;4.65;;;;;;;5.08;100.00;101342.84;5131212;27;20051;-54
2023/11/26 10:36:38;;;;;;;10.57;4.00;;;;;;;5.13;100.00;101351.38;5133571;27;20051;-52
2023/11/26 10:39:09;;;;;;;12.88;5.07;;;;;;;5.17;100.00;101345.16;5133806;27;20478;-54
2023/11/26 10:41:38;;;;;;;13.13;4.22;;;;;;;5.23;100.00;101344.91;5131694;27;20574;-54
2023/11/26 10:44:07;;;;;;;12.55;4.45;;;;;;;5.29;100.00;101340.41;5130771;27;20046;-55
2023/11/26 10:46:36;;;;;;;12.77;4.82;;;;;;;5.31;100.00;101346.44;5130644;27;20569;-53
2023/11/26 10:49:12;;;;;;;11.13;4.93;;;;;;;5.34;100.00;101343.69;5130933;27;20040;-54
2023/11/26 10:51:44;;;;;;;14.18;5.50;;;;;;;5.38;100.00;101340.91;5133467;27;20070;-53
2023/11/26 10:54:27;;;;;;;13.60;5.35;;;;;;;5.41;100.00;101327.78;5133373;27;20092;-53
2023/11/26 10:57:07;;;;;;;11.00;5.03;;;;;;;5.46;100.00;101330.22;5133392;27;20061;-54
2023/11/26 10:59:41;;;;;;;16.17;5.53;;;;;;;5.49;100.00;101326.66;5132459;27;20039;-54
2023/11/26 11:02:13;;;;;;;11.77;4.78;;;;;;;5.54;100.00;101324.72;5129727;27;20070;-54
2023/11/26 11:04:45;;;;;;;;;;;;;;;5.54;100.00;101317.75;5131381;27;20051;-53
2023/11/26 11:07:14;;;;;;;13.40;5.95;;;;;;;5.56;100.00;101320.28;5130996;27;19926;-53
2023/11/26 11:10:03;;;;;;;12.05;4.90;;;;;;;5.58;100.00;101318.50;5130690;27;20050;-54
2023/11/26 11:12:47;;;;;;;9.48;4.90;;;;;;;5.58;100.00;101319.34;5131206;27;20053;-55
2023/11/26 11:15:19;;;;;;;17.23;6.25;;;;;;;5.70;100.00;101325.00;5133316;27;20050;-54
2023/11/26 11:17:48;;;;;;;11.50;4.57;;;;;;;5.75;100.00;101323.94;5133156;27;20051;-54
2023/11/26 11:20:16;;;;;;;9.63;4.20;;;;;;;5.78;100.00;101324.72;5131574;27;20047;-51
2023/11/26 11:22:45;;;;;;;11.55;4.50;;;;;;;5.76;100.00;101319.56;5129663;27;20057;-53
2023/11/26 11:25:16;;;;;;;12.82;4.28;;;;;;;5.80;100.00;101320.31;5130972;27;20394;-54
2023/11/26 11:27:48;;;;;;;11.43;4.38;;;;;;;5.85;100.00;101320.97;5132775;27;20047;-53
2023/11/26 11:30:51;;;;;;;17.23;4.83;;;;;;;5.90;100.00;101319.91;5132927;28;20043;-53
2023/11/26 11:33:19;;;;;;;13.18;4.80;;;;;;;5.94;100.00;101320.63;5132705;28;20049;-54